FIN4MZ EFHK-EFOU
Flight info
| Callsign | FIN4MZ |
|---|---|
| Flight time | 0h 56m |
| Altitude | 36000 |
| Route | TEVRU Y75 SUVIB |
| Aircraft | A320/M-SDE1E2E3FGIM1RWXYZ/LB1 |
Departure
| Time | 2026-04-20 22:18 |
|---|---|
| Airport | Helsinki Vantaa Airport (EFHK) |
Arrival
| Time | 2026-04-20 23:14 |
|---|---|
| Airport | Oulu Airport (EFOU) |
| Time | Latitude | Longitude | Altitude | Speed | Heading |
|---|---|---|---|---|---|
| 2026-04-20 21:46 | 60.31943 | 24.96685 | 164 ft | 0 kts | 137° |
| 2026-04-20 22:11 | 60.31950 | 24.96671 | 163 ft | 4 kts | 141° |
| 2026-04-20 22:11 | 60.31973 | 24.96642 | 163 ft | 4 kts | 164° |
| 2026-04-20 22:11 | 60.31997 | 24.96640 | 163 ft | 4 kts | 212° |
| 2026-04-20 22:12 | 60.32004 | 24.96649 | 163 ft | 0 kts | 228° |
| 2026-04-20 22:14 | 60.31992 | 24.96622 | 163 ft | 11 kts | 228° |
| 2026-04-20 22:14 | 60.31927 | 24.96474 | 163 ft | 14 kts | 228° |
| 2026-04-20 22:14 | 60.31864 | 24.96324 | 163 ft | 14 kts | 238° |
| 2026-04-20 22:15 | 60.31868 | 24.96141 | 164 ft | 14 kts | 303° |
| 2026-04-20 22:15 | 60.31926 | 24.96009 | 168 ft | 12 kts | 282° |
| 2026-04-20 22:15 | 60.31876 | 24.95841 | 168 ft | 21 kts | 229° |
| 2026-04-20 22:15 | 60.31760 | 24.95587 | 170 ft | 26 kts | 229° |
| 2026-04-20 22:16 | 60.31634 | 24.95316 | 168 ft | 28 kts | 228° |
| 2026-04-20 22:16 | 60.31510 | 24.95021 | 168 ft | 28 kts | 227° |
| 2026-04-20 22:16 | 60.31422 | 24.94837 | 165 ft | 12 kts | 239° |
| 2026-04-20 22:16 | 60.31423 | 24.94681 | 163 ft | 13 kts | 310° |
| 2026-04-20 22:17 | 60.31491 | 24.94556 | 164 ft | 14 kts | 319° |
| 2026-04-20 22:17 | 60.31569 | 24.94596 | 166 ft | 14 kts | 50° |
| 2026-04-20 22:17 | 60.31752 | 24.95002 | 172 ft | 75 kts | 47° |
| 2026-04-20 22:17 | 60.32263 | 24.96127 | 177 ft | 146 kts | 47° |
| 2026-04-20 22:18 | 60.33026 | 24.97810 | 748 ft | 164 kts | 46° |
| 2026-04-20 22:18 | 60.33800 | 24.99521 | 1687 ft | 169 kts | 48° |
| 2026-04-20 22:18 | 60.34626 | 25.01339 | 2228 ft | 186 kts | 48° |
| 2026-04-20 22:18 | 60.35561 | 25.03412 | 2566 ft | 212 kts | 48° |
| 2026-04-20 22:19 | 60.36609 | 25.05736 | 3016 ft | 235 kts | 48° |
| 2026-04-20 22:19 | 60.37735 | 25.08224 | 3772 ft | 244 kts | 47° |
| 2026-04-20 22:19 | 60.38967 | 25.10654 | 4686 ft | 250 kts | 37° |
| 2026-04-20 22:19 | 60.40508 | 25.12300 | 5580 ft | 254 kts | 19° |
| 2026-04-20 22:20 | 60.42265 | 25.12911 | 6500 ft | 259 kts | 3° |
| 2026-04-20 22:20 | 60.44082 | 25.12961 | 7377 ft | 262 kts | 3° |
| 2026-04-20 22:20 | 60.45910 | 25.13015 | 8262 ft | 264 kts | 3° |
| 2026-04-20 22:20 | 60.47752 | 25.13074 | 9139 ft | 266 kts | 4° |
| 2026-04-20 22:21 | 60.49618 | 25.13073 | 10032 ft | 270 kts | 358° |
| 2026-04-20 22:21 | 60.51476 | 25.12265 | 10833 ft | 278 kts | 343° |
| 2026-04-20 22:21 | 60.53297 | 25.10606 | 11278 ft | 297 kts | 339° |
| 2026-04-20 22:21 | 60.55238 | 25.08749 | 11547 ft | 318 kts | 339° |
| 2026-04-20 22:22 | 60.57264 | 25.06789 | 12167 ft | 326 kts | 338° |
| 2026-04-20 22:22 | 60.59301 | 25.04800 | 12902 ft | 330 kts | 338° |
| 2026-04-20 22:22 | 60.61413 | 25.02735 | 13668 ft | 334 kts | 339° |
| 2026-04-20 22:22 | 60.63490 | 25.00707 | 14358 ft | 337 kts | 339° |
| 2026-04-20 22:23 | 60.65620 | 24.98629 | 15017 ft | 340 kts | 339° |
| 2026-04-20 22:23 | 60.67767 | 24.96543 | 15679 ft | 343 kts | 339° |
| 2026-04-20 22:23 | 60.69933 | 24.94441 | 16333 ft | 346 kts | 339° |
| 2026-04-20 22:23 | 60.72137 | 24.92295 | 16989 ft | 349 kts | 339° |
| 2026-04-20 22:24 | 60.74349 | 24.90123 | 17647 ft | 352 kts | 339° |
| 2026-04-20 22:24 | 60.76573 | 24.87935 | 18287 ft | 355 kts | 339° |
| 2026-04-20 22:24 | 60.78807 | 24.85742 | 18884 ft | 358 kts | 340° |
| 2026-04-20 22:24 | 60.81109 | 24.83970 | 19417 ft | 356 kts | 350° |
| 2026-04-20 22:25 | 60.83526 | 24.83158 | 19979 ft | 353 kts | 1° |
| 2026-04-20 22:25 | 60.85983 | 24.83340 | 20560 ft | 351 kts | 10° |
| 2026-04-20 22:25 | 60.88410 | 24.83940 | 21140 ft | 353 kts | 10° |
| 2026-04-20 22:25 | 60.90859 | 24.84536 | 21713 ft | 355 kts | 10° |
| 2026-04-20 22:26 | 60.93329 | 24.85133 | 22287 ft | 358 kts | 10° |
| 2026-04-20 22:26 | 60.95815 | 24.85728 | 22851 ft | 360 kts | 10° |
| 2026-04-20 22:26 | 60.98311 | 24.86317 | 23404 ft | 363 kts | 10° |
| 2026-04-20 22:27 | 61.03370 | 24.87511 | 24365 ft | 368 kts | 9° |
| 2026-04-20 22:27 | 61.05894 | 24.88109 | 24788 ft | 370 kts | 9° |
| 2026-04-20 22:27 | 61.08460 | 24.88719 | 25196 ft | 373 kts | 9° |
| 2026-04-20 22:27 | 61.11045 | 24.89338 | 25593 ft | 375 kts | 9° |
| 2026-04-20 22:28 | 61.13648 | 24.89958 | 25987 ft | 377 kts | 9° |
| 2026-04-20 22:28 | 61.16267 | 24.90584 | 26365 ft | 380 kts | 9° |
| 2026-04-20 22:28 | 61.18899 | 24.91217 | 26737 ft | 382 kts | 9° |
| 2026-04-20 22:28 | 61.21557 | 24.91863 | 27106 ft | 385 kts | 9° |
| 2026-04-20 22:29 | 61.24230 | 24.92513 | 27471 ft | 387 kts | 9° |
| 2026-04-20 22:29 | 61.26920 | 24.93164 | 27834 ft | 389 kts | 9° |
| 2026-04-20 22:29 | 61.29622 | 24.93819 | 28186 ft | 392 kts | 9° |
| 2026-04-20 22:29 | 61.32332 | 24.94473 | 28532 ft | 394 kts | 9° |
| 2026-04-20 22:30 | 61.35071 | 24.95132 | 28867 ft | 396 kts | 9° |
| 2026-04-20 22:30 | 61.37819 | 24.95795 | 29196 ft | 399 kts | 9° |
| 2026-04-20 22:30 | 61.40546 | 24.96458 | 29520 ft | 401 kts | 9° |
| 2026-04-20 22:30 | 61.43331 | 24.97137 | 29834 ft | 403 kts | 9° |
| 2026-04-20 22:31 | 61.46114 | 24.97819 | 30133 ft | 405 kts | 9° |
| 2026-04-20 22:31 | 61.48963 | 24.98518 | 30431 ft | 407 kts | 9° |
| 2026-04-20 22:31 | 61.51787 | 24.99214 | 30676 ft | 409 kts | 9° |
| 2026-04-20 22:31 | 61.54624 | 24.99920 | 30922 ft | 411 kts | 9° |
| 2026-04-20 22:32 | 61.57432 | 25.00618 | 31148 ft | 413 kts | 9° |
| 2026-04-20 22:32 | 61.60294 | 25.01322 | 31377 ft | 415 kts | 8° |
| 2026-04-20 22:32 | 61.63181 | 25.01640 | 31592 ft | 418 kts | 4° |
| 2026-04-20 22:32 | 61.66105 | 25.01734 | 31874 ft | 418 kts | 4° |
| 2026-04-20 22:33 | 61.69007 | 25.01836 | 32191 ft | 417 kts | 4° |
| 2026-04-20 22:33 | 61.71904 | 25.01944 | 32513 ft | 416 kts | 4° |
| 2026-04-20 22:33 | 61.74781 | 25.02054 | 33045 ft | 410 kts | 4° |
| 2026-04-20 22:33 | 61.77633 | 25.02161 | 33513 ft | 407 kts | 4° |
| 2026-04-20 22:34 | 61.80464 | 25.02267 | 33899 ft | 406 kts | 4° |
| 2026-04-20 22:34 | 61.83283 | 25.02373 | 34316 ft | 403 kts | 4° |
| 2026-04-20 22:34 | 61.86058 | 25.02479 | 34824 ft | 397 kts | 4° |
| 2026-04-20 22:34 | 61.88812 | 25.02586 | 35153 ft | 395 kts | 4° |
| 2026-04-20 22:35 | 61.91575 | 25.02702 | 35407 ft | 395 kts | 4° |
| 2026-04-20 22:35 | 61.94303 | 25.02813 | 35638 ft | 396 kts | 4° |
| 2026-04-20 22:35 | 61.97061 | 25.02919 | 35860 ft | 397 kts | 4° |
| 2026-04-20 22:35 | 61.99817 | 25.03021 | 36196 ft | 394 kts | 4° |
| 2026-04-20 22:36 | 62.02570 | 25.03125 | 36317 ft | 398 kts | 4° |
| 2026-04-20 22:36 | 62.05367 | 25.03232 | 36340 ft | 402 kts | 4° |
| 2026-04-20 22:36 | 62.10977 | 25.03446 | 36342 ft | 404 kts | 4° |
| 2026-04-20 22:37 | 62.16614 | 25.03668 | 36349 ft | 404 kts | 4° |
| 2026-04-20 22:37 | 62.22237 | 25.03879 | 36353 ft | 403 kts | 4° |
| 2026-04-20 22:38 | 62.27770 | 25.04081 | 36349 ft | 394 kts | 4° |
| 2026-04-20 22:38 | 62.33226 | 25.04291 | 36346 ft | 393 kts | 4° |
| 2026-04-20 22:39 | 62.38693 | 25.04504 | 36351 ft | 393 kts | 4° |
| 2026-04-20 22:39 | 62.43257 | 25.04684 | 36354 ft | 393 kts | 4° |
| 2026-04-20 22:40 | 62.48722 | 25.04906 | 36354 ft | 393 kts | 4° |
| 2026-04-20 22:40 | 62.54194 | 25.05118 | 36356 ft | 393 kts | 4° |
| 2026-04-20 22:41 | 62.59674 | 25.05326 | 36360 ft | 393 kts | 4° |
| 2026-04-20 22:41 | 62.65137 | 25.05550 | 36368 ft | 393 kts | 4° |
| 2026-04-20 22:42 | 62.70622 | 25.05762 | 36362 ft | 393 kts | 4° |
| 2026-04-20 22:42 | 62.76097 | 25.05965 | 36367 ft | 393 kts | 4° |
| 2026-04-20 22:43 | 62.81574 | 25.06167 | 36364 ft | 393 kts | 4° |
| 2026-04-20 22:43 | 62.87010 | 25.06389 | 36370 ft | 393 kts | 4° |
| 2026-04-20 22:44 | 62.92492 | 25.06615 | 36369 ft | 393 kts | 4° |
| 2026-04-20 22:44 | 62.97975 | 25.06828 | 36365 ft | 394 kts | 4° |
| 2026-04-20 22:45 | 63.03572 | 25.07062 | 36377 ft | 405 kts | 4° |
| 2026-04-20 22:45 | 63.09292 | 25.07300 | 36380 ft | 414 kts | 4° |
| 2026-04-20 22:46 | 63.15071 | 25.07534 | 36386 ft | 416 kts | 4° |
| 2026-04-20 22:46 | 63.20849 | 25.07764 | 36307 ft | 417 kts | 4° |
| 2026-04-20 22:47 | 63.23759 | 25.07881 | 36039 ft | 416 kts | 4° |
| 2026-04-20 22:47 | 63.26646 | 25.07996 | 35793 ft | 415 kts | 4° |
| 2026-04-20 22:47 | 63.29496 | 25.08110 | 35165 ft | 416 kts | 5° |
| 2026-04-20 22:47 | 63.32389 | 25.08229 | 34538 ft | 415 kts | 5° |
| 2026-04-20 22:48 | 63.35279 | 25.08344 | 33929 ft | 411 kts | 5° |
| 2026-04-20 22:48 | 63.38115 | 25.08457 | 33374 ft | 406 kts | 5° |
| 2026-04-20 22:48 | 63.40929 | 25.08572 | 32820 ft | 401 kts | 5° |
| 2026-04-20 22:48 | 63.43705 | 25.08680 | 32280 ft | 397 kts | 5° |
| 2026-04-20 22:49 | 63.46432 | 25.08785 | 32002 ft | 387 kts | 5° |
| 2026-04-20 22:49 | 63.49110 | 25.08890 | 31574 ft | 381 kts | 5° |
| 2026-04-20 22:49 | 63.51745 | 25.08995 | 31110 ft | 377 kts | 5° |
| 2026-04-20 22:49 | 63.54344 | 25.09102 | 30390 ft | 370 kts | 5° |
| 2026-04-20 22:50 | 63.56909 | 25.09213 | 29632 ft | 366 kts | 5° |
| 2026-04-20 22:50 | 63.59433 | 25.09330 | 29167 ft | 366 kts | 6° |
| 2026-04-20 22:50 | 63.61975 | 25.09446 | 28689 ft | 364 kts | 5° |
| 2026-04-20 22:50 | 63.64496 | 25.09549 | 28221 ft | 361 kts | 5° |
| 2026-04-20 22:51 | 63.67025 | 25.09649 | 27770 ft | 361 kts | 5° |
| 2026-04-20 22:51 | 63.69526 | 25.09752 | 27301 ft | 358 kts | 5° |
| 2026-04-20 22:51 | 63.72002 | 25.09857 | 26866 ft | 354 kts | 5° |
| 2026-04-20 22:51 | 63.74468 | 25.09962 | 26423 ft | 352 kts | 5° |
| 2026-04-20 22:52 | 63.76908 | 25.10062 | 25986 ft | 349 kts | 5° |
| 2026-04-20 22:52 | 63.79327 | 25.10159 | 25623 ft | 344 kts | 5° |
| 2026-04-20 22:52 | 63.81669 | 25.10247 | 25158 ft | 332 kts | 5° |
| 2026-04-20 22:52 | 63.83939 | 25.10342 | 24676 ft | 328 kts | 5° |
| 2026-04-20 22:53 | 63.86214 | 25.10443 | 24229 ft | 325 kts | 5° |
| 2026-04-20 22:53 | 63.88479 | 25.10550 | 23752 ft | 326 kts | 5° |
| 2026-04-20 22:53 | 63.90735 | 25.10653 | 23282 ft | 323 kts | 5° |
| 2026-04-20 22:53 | 63.92947 | 25.10734 | 23112 ft | 309 kts | 5° |
| 2026-04-20 22:54 | 63.95039 | 25.10802 | 22748 ft | 295 kts | 5° |
| 2026-04-20 22:54 | 63.97066 | 25.10879 | 22140 ft | 289 kts | 5° |
| 2026-04-20 22:54 | 63.99069 | 25.10964 | 21648 ft | 287 kts | 5° |
| 2026-04-20 22:54 | 64.01064 | 25.11056 | 21243 ft | 286 kts | 5° |
| 2026-04-20 22:55 | 64.03072 | 25.11150 | 20835 ft | 285 kts | 5° |
| 2026-04-20 22:55 | 64.05065 | 25.11248 | 20445 ft | 286 kts | 5° |
| 2026-04-20 22:55 | 64.07054 | 25.11340 | 20048 ft | 286 kts | 5° |
| 2026-04-20 22:55 | 64.09042 | 25.11431 | 19703 ft | 284 kts | 5° |
| 2026-04-20 22:56 | 64.11003 | 25.11510 | 19456 ft | 280 kts | 5° |
| 2026-04-20 22:56 | 64.12942 | 25.11584 | 19215 ft | 277 kts | 5° |
| 2026-04-20 22:56 | 64.14850 | 25.11655 | 18964 ft | 273 kts | 5° |
| 2026-04-20 22:56 | 64.16735 | 25.11729 | 18721 ft | 268 kts | 5° |
| 2026-04-20 22:57 | 64.18598 | 25.11808 | 18452 ft | 265 kts | 5° |
| 2026-04-20 22:57 | 64.20430 | 25.11887 | 18175 ft | 262 kts | 5° |
| 2026-04-20 22:57 | 64.22251 | 25.11966 | 17901 ft | 261 kts | 5° |
| 2026-04-20 22:57 | 64.24066 | 25.12047 | 17629 ft | 260 kts | 5° |
| 2026-04-20 22:58 | 64.25870 | 25.12126 | 17362 ft | 259 kts | 4° |
| 2026-04-20 22:58 | 64.27672 | 25.12201 | 17094 ft | 258 kts | 4° |
| 2026-04-20 22:58 | 64.29462 | 25.12275 | 16828 ft | 258 kts | 4° |
| 2026-04-20 22:58 | 64.31258 | 25.12357 | 16571 ft | 257 kts | 4° |
| 2026-04-20 22:59 | 64.33043 | 25.12436 | 16304 ft | 256 kts | 4° |
| 2026-04-20 22:59 | 64.34801 | 25.12511 | 16050 ft | 256 kts | 4° |
| 2026-04-20 22:59 | 64.36625 | 25.12588 | 15788 ft | 255 kts | 4° |
| 2026-04-20 22:59 | 64.38401 | 25.12666 | 15538 ft | 254 kts | 4° |
| 2026-04-20 23:00 | 64.40164 | 25.12745 | 15282 ft | 253 kts | 4° |
| 2026-04-20 23:00 | 64.41924 | 25.12823 | 15032 ft | 253 kts | 4° |
| 2026-04-20 23:00 | 64.43685 | 25.12653 | 14785 ft | 254 kts | 355° |
| 2026-04-20 23:00 | 64.45428 | 25.11889 | 14537 ft | 254 kts | 352° |
| 2026-04-20 23:01 | 64.47161 | 25.11106 | 14294 ft | 254 kts | 352° |
| 2026-04-20 23:01 | 64.48871 | 25.10347 | 14032 ft | 253 kts | 353° |
| 2026-04-20 23:01 | 64.50600 | 25.09583 | 13752 ft | 252 kts | 352° |
| 2026-04-20 23:01 | 64.52321 | 25.08824 | 13479 ft | 251 kts | 352° |
| 2026-04-20 23:02 | 64.54034 | 25.08068 | 13240 ft | 250 kts | 352° |
| 2026-04-20 23:02 | 64.55746 | 25.07307 | 12954 ft | 250 kts | 352° |
| 2026-04-20 23:02 | 64.57452 | 25.06545 | 12613 ft | 250 kts | 352° |
| 2026-04-20 23:02 | 64.59161 | 25.05781 | 12277 ft | 253 kts | 352° |
| 2026-04-20 23:03 | 64.60903 | 25.04998 | 11962 ft | 254 kts | 352° |
| 2026-04-20 23:03 | 64.62575 | 25.04243 | 11749 ft | 249 kts | 351° |
| 2026-04-20 23:03 | 64.64294 | 25.03469 | 11419 ft | 248 kts | 351° |
| 2026-04-20 23:03 | 64.65970 | 25.02710 | 11066 ft | 242 kts | 351° |
| 2026-04-20 23:04 | 64.67614 | 25.01967 | 10589 ft | 241 kts | 351° |
| 2026-04-20 23:04 | 64.69253 | 25.01225 | 10439 ft | 240 kts | 351° |
| 2026-04-20 23:04 | 64.70899 | 25.00483 | 10328 ft | 241 kts | 351° |
| 2026-04-20 23:04 | 64.72558 | 24.99732 | 9826 ft | 242 kts | 351° |
| 2026-04-20 23:05 | 64.74200 | 24.98988 | 9371 ft | 241 kts | 351° |
| 2026-04-20 23:05 | 64.75864 | 24.98235 | 8798 ft | 244 kts | 351° |
| 2026-04-20 23:05 | 64.77511 | 24.97483 | 8193 ft | 243 kts | 350° |
| 2026-04-20 23:05 | 64.79174 | 24.96720 | 7709 ft | 237 kts | 350° |
| 2026-04-20 23:06 | 64.80754 | 24.95998 | 7307 ft | 235 kts | 350° |
| 2026-04-20 23:06 | 64.82363 | 24.95265 | 6887 ft | 232 kts | 350° |
| 2026-04-20 23:06 | 64.83986 | 24.94527 | 6384 ft | 230 kts | 349° |
| 2026-04-20 23:06 | 64.85567 | 24.93805 | 5812 ft | 228 kts | 349° |
| 2026-04-20 23:07 | 64.87108 | 24.93102 | 5403 ft | 220 kts | 349° |
| 2026-04-20 23:07 | 64.88601 | 24.92420 | 5022 ft | 217 kts | 349° |
| 2026-04-20 23:07 | 64.90076 | 24.91743 | 4744 ft | 216 kts | 349° |
| 2026-04-20 23:07 | 64.91541 | 24.91070 | 4391 ft | 217 kts | 349° |
| 2026-04-20 23:08 | 64.93041 | 24.90401 | 4008 ft | 218 kts | 352° |
| 2026-04-20 23:08 | 64.94063 | 24.90277 | 3866 ft | 213 kts | 2° |
| 2026-04-20 23:08 | 64.95511 | 24.90814 | 3817 ft | 215 kts | 16° |
| 2026-04-20 23:08 | 64.96892 | 24.92198 | 3736 ft | 209 kts | 30° |
| 2026-04-20 23:09 | 64.98120 | 24.93940 | 3649 ft | 202 kts | 30° |
| 2026-04-20 23:09 | 64.99300 | 24.95604 | 3552 ft | 192 kts | 30° |
| 2026-04-20 23:09 | 65.00414 | 24.97271 | 3458 ft | 188 kts | 42° |
| 2026-04-20 23:09 | 65.01115 | 24.99832 | 3486 ft | 187 kts | 73° |
| 2026-04-20 23:10 | 65.01166 | 25.02876 | 3226 ft | 191 kts | 104° |
| 2026-04-20 23:10 | 65.00572 | 25.05638 | 2853 ft | 188 kts | 122° |
| 2026-04-20 23:10 | 64.99896 | 25.08257 | 2532 ft | 185 kts | 121° |
| 2026-04-20 23:10 | 64.99239 | 25.10838 | 2240 ft | 177 kts | 121° |
| 2026-04-20 23:11 | 64.98628 | 25.13253 | 1986 ft | 168 kts | 120° |
| 2026-04-20 23:11 | 64.98038 | 25.15589 | 1771 ft | 164 kts | 120° |
| 2026-04-20 23:11 | 64.97475 | 25.17819 | 1523 ft | 151 kts | 120° |
| 2026-04-20 23:11 | 64.96945 | 25.19917 | 1314 ft | 144 kts | 120° |
| 2026-04-20 23:12 | 64.96437 | 25.21926 | 1114 ft | 141 kts | 119° |
| 2026-04-20 23:12 | 64.95936 | 25.23907 | 935 ft | 140 kts | 119° |
| 2026-04-20 23:12 | 64.95440 | 25.25874 | 774 ft | 139 kts | 119° |
| 2026-04-20 23:12 | 64.94947 | 25.27825 | 606 ft | 138 kts | 120° |
| 2026-04-20 23:13 | 64.94458 | 25.29765 | 415 ft | 137 kts | 120° |
| 2026-04-20 23:13 | 64.93970 | 25.31695 | 252 ft | 137 kts | 120° |
| 2026-04-20 23:13 | 64.93489 | 25.33602 | 67 ft | 136 kts | 121° |
| 2026-04-20 23:13 | 64.93050 | 25.35320 | 53 ft | 103 kts | 121° |
| 2026-04-20 23:14 | 64.92767 | 25.36425 | 53 ft | 54 kts | 121° |
| 2026-04-20 23:14 | 64.92631 | 25.36957 | 49 ft | 33 kts | 121° |
| 2026-04-20 23:14 | 64.92520 | 25.37385 | 45 ft | 28 kts | 120° |
| 2026-04-20 23:14 | 64.92474 | 25.37667 | 44 ft | 14 kts | 96° |
| 2026-04-20 23:15 | 64.92498 | 25.37895 | 43 ft | 14 kts | 47° |
| 2026-04-20 23:15 | 64.92575 | 25.37912 | 44 ft | 11 kts | 327° |
| 2026-04-20 23:15 | 64.92619 | 25.37771 | 45 ft | 10 kts | 301° |
| 2026-04-20 23:15 | 64.92651 | 25.37642 | 46 ft | 8 kts | 298° |
| 2026-04-20 23:16 | 64.92689 | 25.37492 | 45 ft | 13 kts | 301° |
| 2026-04-20 23:16 | 64.92724 | 25.37391 | 48 ft | 5 kts | 347° |
| 2026-04-20 23:16 | 64.92743 | 25.37409 | 49 ft | 3 kts | 21° |
| 2026-04-20 23:16 | 64.92753 | 25.37420 | 49 ft | 1 kts | 25° |
| 2026-04-20 23:17 | 64.92770 | 25.37443 | 46 ft | 2 kts | 33° |
| 2026-04-20 23:17 | 64.92776 | 25.37452 | 47 ft | 0 kts | 32° |
| 2026-04-20 23:17 | 64.92779 | 25.37457 | 48 ft | 0 kts | 32° |
| 2026-04-20 23:17 | 64.92783 | 25.37462 | 50 ft | 0 kts | 31° |
| 2026-04-20 23:18 | 64.92786 | 25.37466 | 50 ft | 1 kts | 31° |
| 2026-04-20 23:18 | 64.92786 | 25.37467 | 50 ft | 0 kts | 31° |